Terminal Aerodrome Forecast
Issued by NWS Duluth, MN

Home | Current Version | Previous Version | Text Only | Print | Product List | Glossary On
Versions: 1 2 3 4 5 6 7 8 9 10 11 12 13 14 15 16 17 18 19 20 21 22 23 24 25 26 27 28 29
622
FTUS43 KDLH 201454 AAC
TAFDLH
TAF AMD
KDLH 201454Z 2015/2112 14010G17KT 6SM -DZ BR OVC005
      TEMPO 2016/2017 OVC007
     FM201700 20010G17KT 6SM BR BKN010
     FM201800 28013G19KT P6SM SCT050
     FM210100 25004KT P6SM SKC
     FM210300 VRB03KT 3SM BR SKC=

USA.gov is the U.S. government's official web portal to all federal, state and local government web resources and services.